Aviation Digital Data Service (ADDS)

Output produced by METARs form (1059 UTC 17 June 2019)
found at http://www.aviationweather.gov/metar/data/
 
METAR text: OMDB 171000Z 35010KT CAVOK 38/26 Q0998 NOSIG
Conditions at: OMDB (DUBAI INTL AIRPO, AE) observed 1000 UTC 17 June 2019
Temperature: 38.0°C (100°F)
Dewpoint: 26.0°C (79°F) [RH = 51%]
Pressure (altimeter): 29.47 inches Hg (998.0 mb)
Winds: from the N (350 degrees) at 12 MPH (10 knots; 5.1 m/s)
Visibility: 6 or more miles (10+ km)
Ceiling: ceiling and visibility are OK
Clouds: unknown
Weather: no significant weather observed at this time

METAR text: OMDB 170900Z 36008KT 320V050 CAVOK 37/26 Q0999 NOSIG
Conditions at: OMDB (DUBAI INTL AIRPO, AE) observed 0900 UTC 17 June 2019
Temperature: 37.0°C (99°F)
Dewpoint: 26.0°C (79°F) [RH = 54%]
Pressure (altimeter): 29.50 inches Hg (999.0 mb)
Winds: from the N (360 degrees) at 9 MPH (8 knots; 4.1 m/s)
Visibility: 6 or more miles (10+ km)
Ceiling: ceiling and visibility are OK
Clouds: unknown
Weather: no significant weather observed at this time

METAR text: OMDB 170800Z 33012KT 280V030 CAVOK 39/21 Q0999 NOSIG
Conditions at: OMDB (DUBAI INTL AIRPO, AE) observed 0800 UTC 17 June 2019
Temperature: 39.0°C (102°F)
Dewpoint: 21.0°C (70°F) [RH = 36%]
Pressure (altimeter): 29.50 inches Hg (999.0 mb)
Winds: from the NNW (330 degrees) at 14 MPH (12 knots; 6.2 m/s)
Visibility: 6 or more miles (10+ km)
Ceiling: ceiling and visibility are OK
Clouds: unknown
Weather: no significant weather observed at this time

METAR text: OMDB 170700Z 34009KT 310V010 CAVOK 40/15 Q1000 NOSIG
Conditions at: OMDB (DUBAI INTL AIRPO, AE) observed 0700 UTC 17 June 2019
Temperature: 40.0°C (104°F)
Dewpoint: 15.0°C (59°F) [RH = 23%]
Pressure (altimeter): 29.53 inches Hg (1000.0 mb)
Winds: from the NNW (340 degrees) at 10 MPH (9 knots; 4.6 m/s)
Visibility: 6 or more miles (10+ km)
Ceiling: ceiling and visibility are OK
Clouds: unknown
Weather: no significant weather observed at this time

METAR text: OMDB 170600Z 34007KT 310V030 CAVOK 40/18 Q1000 NOSIG
Conditions at: OMDB (DUBAI INTL AIRPO, AE) observed 0600 UTC 17 June 2019
Temperature: 40.0°C (104°F)
Dewpoint: 18.0°C (64°F) [RH = 28%]
Pressure (altimeter): 29.53 inches Hg (1000.0 mb)
Winds: from the NNW (340 degrees) at 8 MPH (7 knots; 3.6 m/s)
Visibility: 6 or more miles (10+ km)
Ceiling: ceiling and visibility are OK
Clouds: unknown
Weather: no significant weather observed at this time

METAR text: OMDB 170500Z 21003KT 140V310 CAVOK 37/14 Q0999 BECMG 32012KT
Conditions at: OMDB (DUBAI INTL AIRPO, AE) observed 0500 UTC 17 June 2019
Temperature: 37.0°C (99°F)
Dewpoint: 14.0°C (57°F) [RH = 25%]
Pressure (altimeter): 29.50 inches Hg (999.0 mb)
Winds: from the SSW (210 degrees) at 3 MPH (3 knots; 1.5 m/s)
Visibility: 6 or more miles (10+ km)
Ceiling: ceiling and visibility are OK
Clouds: unknown
Weather: no significant weather observed at this time

METAR text: OMDB 170400Z VRB04KT CAVOK 35/13 Q0999 NOSIG
Conditions at: OMDB (DUBAI INTL AIRPO, AE) observed 0400 UTC 17 June 2019
Temperature: 35.0°C (95°F)
Dewpoint: 13.0°C (55°F) [RH = 27%]
Pressure (altimeter): 29.50 inches Hg (999.0 mb)
Winds: variable direction winds at 5 MPH (4 knots; 2.1 m/s)
Visibility: 6 or more miles (10+ km)
Ceiling: ceiling and visibility are OK
Clouds: unknown
Weather: no significant weather observed at this time

METAR text: OMDB 170300Z 25004KT CAVOK 32/18 Q0998 NOSIG
Conditions at: OMDB (DUBAI INTL AIRPO, AE) observed 0300 UTC 17 June 2019
Temperature: 32.0°C (90°F)
Dewpoint: 18.0°C (64°F) [RH = 43%]
Pressure (altimeter): 29.47 inches Hg (998.0 mb)
Winds: from the WSW (250 degrees) at 5 MPH (4 knots; 2.1 m/s)
Visibility: 6 or more miles (10+ km)
Ceiling: ceiling and visibility are OK
Clouds: unknown
Weather: no significant weather observed at this time

METAR text: OMDB 170200Z 20004KT 150V250 CAVOK 33/18 Q0998 NOSIG
Conditions at: OMDB (DUBAI INTL AIRPO, AE) observed 0200 UTC 17 June 2019
Temperature: 33.0°C (91°F)
Dewpoint: 18.0°C (64°F) [RH = 41%]
Pressure (altimeter): 29.47 inches Hg (998.0 mb)
Winds: from the SSW (200 degrees) at 5 MPH (4 knots; 2.1 m/s)
Visibility: 6 or more miles (10+ km)
Ceiling: ceiling and visibility are OK
Clouds: unknown
Weather: no significant weather observed at this time

METAR text: OMDB 170100Z 18005KT CAVOK 32/22 Q0997 NOSIG
Conditions at: OMDB (DUBAI INTL AIRPO, AE) observed 0100 UTC 17 June 2019
Temperature: 32.0°C (90°F)
Dewpoint: 22.0°C (72°F) [RH = 56%]
Pressure (altimeter): 29.44 inches Hg (997.0 mb)
Winds: from the S (180 degrees) at 6 MPH (5 knots; 2.6 m/s)
Visibility: 6 or more miles (10+ km)
Ceiling: ceiling and visibility are OK
Clouds: unknown
Weather: no significant weather observed at this time

METAR text: OMDB 170000Z VRB02KT CAVOK 33/24 Q0998 NOSIG
Conditions at: OMDB (DUBAI INTL AIRPO, AE) observed 0000 UTC 17 June 2019
Temperature: 33.0°C (91°F)
Dewpoint: 24.0°C (75°F) [RH = 59%]
Pressure (altimeter): 29.47 inches Hg (998.0 mb)
Winds: variable direction winds at 2 MPH (2 knots; 1.0 m/s)
Visibility: 6 or more miles (10+ km)
Ceiling: ceiling and visibility are OK
Clouds: unknown
Weather: no significant weather observed at this time

METAR text: OMDB 162300Z 22003KT 180V240 CAVOK 34/23 Q0998 NOSIG
Conditions at: OMDB (DUBAI INTL AIRPO, AE) observed 2300 UTC 16 June 2019
Temperature: 34.0°C (93°F)
Dewpoint: 23.0°C (73°F) [RH = 53%]
Pressure (altimeter): 29.47 inches Hg (998.0 mb)
Winds: from the SW (220 degrees) at 3 MPH (3 knots; 1.5 m/s)
Visibility: 6 or more miles (10+ km)
Ceiling: ceiling and visibility are OK
Clouds: unknown
Weather: no significant weather observed at this time

METAR text: OMDB 162200Z 15002KT CAVOK 35/21 Q0998 NOSIG
Conditions at: OMDB (DUBAI INTL AIRPO, AE) observed 2200 UTC 16 June 2019
Temperature: 35.0°C (95°F)
Dewpoint: 21.0°C (70°F) [RH = 44%]
Pressure (altimeter): 29.47 inches Hg (998.0 mb)
Winds: from the SSE (150 degrees) at 2 MPH (2 knots; 1.0 m/s)
Visibility: 6 or more miles (10+ km)
Ceiling: ceiling and visibility are OK
Clouds: unknown
Weather: no significant weather observed at this time

METAR text: OMDB 162100Z 10004KT 070V130 CAVOK 34/24 Q0998 NOSIG
Conditions at: OMDB (DUBAI INTL AIRPO, AE) observed 2100 UTC 16 June 2019
Temperature: 34.0°C (93°F)
Dewpoint: 24.0°C (75°F) [RH = 56%]
Pressure (altimeter): 29.47 inches Hg (998.0 mb)
Winds: from the E (100 degrees) at 5 MPH (4 knots; 2.1 m/s)
Visibility: 6 or more miles (10+ km)
Ceiling: ceiling and visibility are OK
Clouds: unknown
Weather: no significant weather observed at this time

METAR text: OMDB 162000Z 09005KT 020V120 CAVOK 35/23 Q0999 NOSIG
Conditions at: OMDB (DUBAI INTL AIRPO, AE) observed 2000 UTC 16 June 2019
Temperature: 35.0°C (95°F)
Dewpoint: 23.0°C (73°F) [RH = 50%]
Pressure (altimeter): 29.50 inches Hg (999.0 mb)
Winds: from the E (90 degrees) at 6 MPH (5 knots; 2.6 m/s)
Visibility: 6 or more miles (10+ km)
Ceiling: ceiling and visibility are OK
Clouds: unknown
Weather: no significant weather observed at this time

METAR text: OMDB 161900Z 10006KT 060V130 CAVOK 35/24 Q0999 NOSIG
Conditions at: OMDB (DUBAI INTL AIRPO, AE) observed 1900 UTC 16 June 2019
Temperature: 35.0°C (95°F)
Dewpoint: 24.0°C (75°F) [RH = 53%]
Pressure (altimeter): 29.50 inches Hg (999.0 mb)
Winds: from the E (100 degrees) at 7 MPH (6 knots; 3.1 m/s)
Visibility: 6 or more miles (10+ km)
Ceiling: ceiling and visibility are OK
Clouds: unknown
Weather: no significant weather observed at this time

METAR text: OMDB 161800Z 34004KT 300V100 CAVOK 35/26 Q0999 NOSIG
Conditions at: OMDB (DUBAI INTL AIRPO, AE) observed 1800 UTC 16 June 2019
Temperature: 35.0°C (95°F)
Dewpoint: 26.0°C (79°F) [RH = 60%]
Pressure (altimeter): 29.50 inches Hg (999.0 mb)
Winds: from the NNW (340 degrees) at 5 MPH (4 knots; 2.1 m/s)
Visibility: 6 or more miles (10+ km)
Ceiling: ceiling and visibility are OK
Clouds: unknown
Weather: no significant weather observed at this time

METAR text: OMDB 161700Z 33006KT CAVOK 35/28 Q0999 NOSIG
Conditions at: OMDB (DUBAI INTL AIRPO, AE) observed 1700 UTC 16 June 2019
Temperature: 35.0°C (95°F)
Dewpoint: 28.0°C (82°F) [RH = 67%]
Pressure (altimeter): 29.50 inches Hg (999.0 mb)
Winds: from the NNW (330 degrees) at 7 MPH (6 knots; 3.1 m/s)
Visibility: 6 or more miles (10+ km)
Ceiling: ceiling and visibility are OK
Clouds: unknown
Weather: no significant weather observed at this time

METAR text: OMDB 161600Z 36005KT 330V050 CAVOK 35/27 Q0998 NOSIG
Conditions at: OMDB (DUBAI INTL AIRPO, AE) observed 1600 UTC 16 June 2019
Temperature: 35.0°C (95°F)
Dewpoint: 27.0°C (81°F) [RH = 63%]
Pressure (altimeter): 29.47 inches Hg (998.0 mb)
Winds: from the N (360 degrees) at 6 MPH (5 knots; 2.6 m/s)
Visibility: 6 or more miles (10+ km)
Ceiling: ceiling and visibility are OK
Clouds: unknown
Weather: no significant weather observed at this time

METAR text: OMDB 161500Z 34007KT CAVOK 36/25 Q0997 NOSIG
Conditions at: OMDB (DUBAI INTL AIRPO, AE) observed 1500 UTC 16 June 2019
Temperature: 36.0°C (97°F)
Dewpoint: 25.0°C (77°F) [RH = 53%]
Pressure (altimeter): 29.44 inches Hg (997.0 mb)
Winds: from the NNW (340 degrees) at 8 MPH (7 knots; 3.6 m/s)
Visibility: 6 or more miles (10+ km)
Ceiling: ceiling and visibility are OK
Clouds: unknown
Weather: no significant weather observed at this time

METAR text: OMDB 161400Z 36009KT 320V070 CAVOK 37/24 Q0997 NOSIG
Conditions at: OMDB (DUBAI INTL AIRPO, AE) observed 1400 UTC 16 June 2019
Temperature: 37.0°C (99°F)
Dewpoint: 24.0°C (75°F) [RH = 48%]
Pressure (altimeter): 29.44 inches Hg (997.0 mb)
Winds: from the N (360 degrees) at 10 MPH (9 knots; 4.6 m/s)
Visibility: 6 or more miles (10+ km)
Ceiling: ceiling and visibility are OK
Clouds: unknown
Weather: no significant weather observed at this time

METAR text: OMDB 161300Z 35010KT 320V030 CAVOK 37/25 Q0997 NOSIG
Conditions at: OMDB (DUBAI INTL AIRPO, AE) observed 1300 UTC 16 June 2019
Temperature: 37.0°C (99°F)
Dewpoint: 25.0°C (77°F) [RH = 50%]
Pressure (altimeter): 29.44 inches Hg (997.0 mb)
Winds: from the N (350 degrees) at 12 MPH (10 knots; 5.1 m/s)
Visibility: 6 or more miles (10+ km)
Ceiling: ceiling and visibility are OK
Clouds: unknown
Weather: no significant weather observed at this time

METAR text: OMDB 161200Z 35013KT CAVOK 38/24 Q0997 NOSIG
Conditions at: OMDB (DUBAI INTL AIRPO, AE) observed 1200 UTC 16 June 2019
Temperature: 38.0°C (100°F)
Dewpoint: 24.0°C (75°F) [RH = 45%]
Pressure (altimeter): 29.44 inches Hg (997.0 mb)
Winds: from the N (350 degrees) at 15 MPH (13 knots; 6.7 m/s)
Visibility: 6 or more miles (10+ km)
Ceiling: ceiling and visibility are OK
Clouds: unknown
Weather: no significant weather observed at this time

METAR text: OMDB 161100Z 33012KT CAVOK 38/26 Q0997 NOSIG
Conditions at: OMDB (DUBAI INTL AIRPO, AE) observed 1100 UTC 16 June 2019
Temperature: 38.0°C (100°F)
Dewpoint: 26.0°C (79°F) [RH = 51%]
Pressure (altimeter): 29.44 inches Hg (997.0 mb)
Winds: from the NNW (330 degrees) at 14 MPH (12 knots; 6.2 m/s)
Visibility: 6 or more miles (10+ km)
Ceiling: ceiling and visibility are OK
Clouds: unknown
Weather: no significant weather observed at this time

METAR text: OMDB 161000Z 33011KT CAVOK 38/26 Q0998 NOSIG
Conditions at: OMDB (DUBAI INTL AIRPO, AE) observed 1000 UTC 16 June 2019
Temperature: 38.0°C (100°F)
Dewpoint: 26.0°C (79°F) [RH = 51%]
Pressure (altimeter): 29.47 inches Hg (998.0 mb)
Winds: from the NNW (330 degrees) at 13 MPH (11 knots; 5.7 m/s)
Visibility: 6 or more miles (10+ km)
Ceiling: ceiling and visibility are OK
Clouds: unknown
Weather: no significant weather observed at this time

METAR text: OMDB 160900Z 32010KT CAVOK 39/26 Q0999 NOSIG
Conditions at: OMDB (DUBAI INTL AIRPO, AE) observed 0900 UTC 16 June 2019
Temperature: 39.0°C (102°F)
Dewpoint: 26.0°C (79°F) [RH = 48%]
Pressure (altimeter): 29.50 inches Hg (999.0 mb)
Winds: from the NW (320 degrees) at 12 MPH (10 knots; 5.1 m/s)
Visibility: 6 or more miles (10+ km)
Ceiling: ceiling and visibility are OK
Clouds: unknown
Weather: no significant weather observed at this time

METAR text: OMDB 160800Z 34009KT 310V010 CAVOK 40/27 Q0999 NOSIG
Conditions at: OMDB (DUBAI INTL AIRPO, AE) observed 0800 UTC 16 June 2019
Temperature: 40.0°C (104°F)
Dewpoint: 27.0°C (81°F) [RH = 48%]
Pressure (altimeter): 29.50 inches Hg (999.0 mb)
Winds: from the NNW (340 degrees) at 10 MPH (9 knots; 4.6 m/s)
Visibility: 6 or more miles (10+ km)
Ceiling: ceiling and visibility are OK
Clouds: unknown
Weather: no significant weather observed at this time

METAR text: OMDB 160700Z 36009KT 300V030 CAVOK 40/24 Q0999 NOSIG
Conditions at: OMDB (DUBAI INTL AIRPO, AE) observed 0700 UTC 16 June 2019
Temperature: 40.0°C (104°F)
Dewpoint: 24.0°C (75°F) [RH = 40%]
Pressure (altimeter): 29.50 inches Hg (999.0 mb)
Winds: from the N (360 degrees) at 10 MPH (9 knots; 4.6 m/s)
Visibility: 6 or more miles (10+ km)
Ceiling: ceiling and visibility are OK
Clouds: unknown
Weather: no significant weather observed at this time

METAR text: OMDB 160600Z VRB03KT CAVOK 42/08 Q0999 NOSIG
Conditions at: OMDB (DUBAI INTL AIRPO, AE) observed 0600 UTC 16 June 2019
Temperature: 42.0°C (108°F)
Dewpoint: 8.0°C (46°F) [RH = 13%]
Pressure (altimeter): 29.50 inches Hg (999.0 mb)
Winds: variable direction winds at 3 MPH (3 knots; 1.5 m/s)
Visibility: 6 or more miles (10+ km)
Ceiling: ceiling and visibility are OK
Clouds: unknown
Weather: no significant weather observed at this time

METAR text: OMDB 160500Z VRB03KT 9000 NSC 39/13 Q0999 NOSIG
Conditions at: OMDB (DUBAI INTL AIRPO, AE) observed 0500 UTC 16 June 2019
Temperature: 39.0°C (102°F)
Dewpoint: 13.0°C (55°F) [RH = 21%]
Pressure (altimeter): 29.50 inches Hg (999.0 mb)
Winds: variable direction winds at 3 MPH (3 knots; 1.5 m/s)
Visibility: 6 miles ( 9 km)
Ceiling: at least 12,000 feet AGL
Clouds: sky clear below 12,000 feet AGL
Weather: no significant weather observed at this time

METAR text: OMDB 160400Z 09003KT 020V190 CAVOK 37/16 Q0999 NOSIG
Conditions at: OMDB (DUBAI INTL AIRPO, AE) observed 0400 UTC 16 June 2019
Temperature: 37.0°C (99°F)
Dewpoint: 16.0°C (61°F) [RH = 29%]
Pressure (altimeter): 29.50 inches Hg (999.0 mb)
Winds: from the E (90 degrees) at 3 MPH (3 knots; 1.5 m/s)
Visibility: 6 or more miles (10+ km)
Ceiling: ceiling and visibility are OK
Clouds: unknown
Weather: no significant weather observed at this time

METAR text: OMDB 160300Z VRB05KT CAVOK 35/18 Q0999 NOSIG
Conditions at: OMDB (DUBAI INTL AIRPO, AE) observed 0300 UTC 16 June 2019
Temperature: 35.0°C (95°F)
Dewpoint: 18.0°C (64°F) [RH = 37%]
Pressure (altimeter): 29.50 inches Hg (999.0 mb)
Winds: variable direction winds at 6 MPH (5 knots; 2.6 m/s)
Visibility: 6 or more miles (10+ km)
Ceiling: ceiling and visibility are OK
Clouds: unknown
Weather: no significant weather observed at this time

METAR text: OMDB 160200Z 11007KT 8000 NSC 33/20 Q0998 NOSIG
Conditions at: OMDB (DUBAI INTL AIRPO, AE) observed 0200 UTC 16 June 2019
Temperature: 33.0°C (91°F)
Dewpoint: 20.0°C (68°F) [RH = 46%]
Pressure (altimeter): 29.47 inches Hg (998.0 mb)
Winds: from the ESE (110 degrees) at 8 MPH (7 knots; 3.6 m/s)
Visibility: 5 miles ( 8 km)
Ceiling: at least 12,000 feet AGL
Clouds: sky clear below 12,000 feet AGL
Weather: no significant weather observed at this time

METAR text: OMDB 160100Z 22004KT 190V250 CAVOK 34/22 Q0997 NOSIG
Conditions at: OMDB (DUBAI INTL AIRPO, AE) observed 0100 UTC 16 June 2019
Temperature: 34.0°C (93°F)
Dewpoint: 22.0°C (72°F) [RH = 50%]
Pressure (altimeter): 29.44 inches Hg (997.0 mb)
Winds: from the SW (220 degrees) at 5 MPH (4 knots; 2.1 m/s)
Visibility: 6 or more miles (10+ km)
Ceiling: ceiling and visibility are OK
Clouds: unknown
Weather: no significant weather observed at this time

METAR text: OMDB 160000Z VRB06KT CAVOK 37/19 Q0997 NOSIG
Conditions at: OMDB (DUBAI INTL AIRPO, AE) observed 0000 UTC 16 June 2019
Temperature: 37.0°C (99°F)
Dewpoint: 19.0°C (66°F) [RH = 35%]
Pressure (altimeter): 29.44 inches Hg (997.0 mb)
Winds: variable direction winds at 7 MPH (6 knots; 3.1 m/s)
Visibility: 6 or more miles (10+ km)
Ceiling: ceiling and visibility are OK
Clouds: unknown
Weather: no significant weather observed at this time

METAR text: OMDB 152300Z 34005KT 280V080 CAVOK 36/22 Q0997 NOSIG
Conditions at: OMDB (DUBAI INTL AIRPO, AE) observed 2300 UTC 15 June 2019
Temperature: 36.0°C (97°F)
Dewpoint: 22.0°C (72°F) [RH = 45%]
Pressure (altimeter): 29.44 inches Hg (997.0 mb)
Winds: from the NNW (340 degrees) at 6 MPH (5 knots; 2.6 m/s)
Visibility: 6 or more miles (10+ km)
Ceiling: ceiling and visibility are OK
Clouds: unknown
Weather: no significant weather observed at this time

Forecast for: COR
Text: TAF COR OMDB 170507Z 1706/1812 33013KT CAVOK
Forecast period: 0600 to 1500 UTC 17 June 2019
Forecast type: FROM: standard forecast or significant change
Winds: from the NNW (330 degrees) at 15 MPH (13 knots; 6.7 m/s)
Visibility: 6 or more miles 10+ km)
Ceiling: unknown
Clouds: missing
Weather: NSW  (no significant weather)
Text: BECMG 1715/1717 18005KT
Forecast period: 1500 UTC 17 June 2019 to 0600 UTC 18 June 2019
Forecast type: BECOMING: Conditions expected to become as follows by 1700 UTC 17 June 2019
Winds: from the S (180 degrees) at 6 MPH (5 knots; 2.6 m/s)
Visibility: 6 or more miles 10+ km)
Ceiling: unknown
Clouds: missing
Weather: NSW  (no significant weather)
Text: PROB30 1722/1804 3000 BR BKN008
Forecast period: 2200 UTC 17 June 2019 to 0400 UTC 18 June 2019
Forecast type: PROBABLE: 30 percent likelihood of the following during this time
Visibility: 1.86 miles (2.99 km)
Ceiling: 800 feet AGL
Clouds: broken clouds at 800 feet AGL
Weather: BR  (mist)
Text: BECMG 1806/1808 30013KT
Forecast period: 0600 to 1200 UTC 18 June 2019
Forecast type: BECOMING: Conditions expected to become as follows by 0800 UTC 18 June 2019
Winds: from the WNW (300 degrees) at 15 MPH (13 knots; 6.7 m/s)
Visibility: 6 or more miles 10+ km)
Ceiling: unknown
Clouds: missing
Weather: NSW  (no significant weather)